Time;durP1;ratioP1;P1;durP2;ratioP2;P2;SDS_P1;SDS_P2;PMS_P1;PMS_P2;Temp;Humidity;BMP_temperature;BMP_pressure;BME280_temperature;BME280_humidity;BME280_pressure;Samples;Min_cycle;Max_cycle;Signal;HPM_P1;HPM_P2
2023/11/04 00:01:30;;;;;;;3.38;2.13;;;5.10;99.90;;;;;;5002264;28;20026;-31
2023/11/04 00:03:56;;;;;;;3.28;2.50;;;5.10;99.90;;;;;;5003731;28;20034;-32
2023/11/04 00:06:23;;;;;;;2.97;2.17;;;5.10;99.90;;;;;;5000990;28;20038;-32
2023/11/04 00:08:49;;;;;;;2.40;2.20;;;5.10;99.90;;;;;;5002084;28;20064;-32
2023/11/04 00:11:14;;;;;;;2.90;2.67;;;5.00;99.90;;;;;;4999990;28;20033;-31
2023/11/04 00:13:40;;;;;;;2.95;2.30;;;5.10;99.90;;;;;;5004211;28;20116;-37
2023/11/04 00:16:08;;;;;;;3.80;2.95;;;5.00;99.90;;;;;;5002373;28;20061;-32
2023/11/04 00:18:37;;;;;;;3.03;2.50;;;5.00;99.90;;;;;;5005815;28;20029;-31
2023/11/04 00:21:03;;;;;;;18.23;7.88;;;5.00;99.90;;;;;;5010059;28;20034;-36
2023/11/04 00:23:29;;;;;;;9.77;4.68;;;4.80;99.90;;;;;;5006662;28;20037;-34
2023/11/04 00:25:54;;;;;;;18.33;6.78;;;4.70;99.90;;;;;;5003877;28;20080;-39
2023/11/04 00:28:20;;;;;;;15.68;7.10;;;4.70;99.90;;;;;;5006632;28;20042;-36
2023/11/04 00:30:47;;;;;;;10.80;5.55;;;4.70;99.90;;;;;;5005926;28;20407;-39
2023/11/04 00:33:14;;;;;;;9.43;4.80;;;4.70;99.90;;;;;;5003776;28;20180;-36
2023/11/04 00:35:39;;;;;;;4.60;3.40;;;4.60;99.90;;;;;;5002871;28;20042;-39
2023/11/04 00:38:05;;;;;;;3.70;3.17;;;4.60;99.90;;;;;;5004730;28;20036;-39
2023/11/04 00:40:31;;;;;;;2.63;2.05;;;4.70;99.90;;;;;;5001033;28;20065;-40
2023/11/04 00:42:57;;;;;;;2.33;2.13;;;4.60;99.90;;;;;;5008197;28;20038;-39
2023/11/04 00:45:23;;;;;;;2.20;2.00;;;4.50;99.90;;;;;;5008466;28;20026;-39
2023/11/04 00:47:48;;;;;;;2.50;2.00;;;4.40;99.90;;;;;;5004040;28;20046;-40
2023/11/04 00:50:14;;;;;;;2.65;2.33;;;4.40;99.90;;;;;;5004239;28;20419;-39
2023/11/04 00:52:40;;;;;;;2.70;1.92;;;4.30;99.90;;;;;;5007266;28;20125;-38
2023/11/04 00:55:05;;;;;;;1.88;1.63;;;4.20;99.90;;;;;;4965546;28;20061;-34
2023/11/04 00:57:31;;;;;;;2.22;2.03;;;4.20;99.90;;;;;;5008252;28;20056;-39
2023/11/04 00:59:57;;;;;;;3.70;2.00;;;4.10;99.90;;;;;;5003094;28;20034;-39
2023/11/04 01:02:22;;;;;;;1.70;1.60;;;4.00;99.90;;;;;;5003315;28;20133;-36
2023/11/04 01:04:48;;;;;;;2.80;1.95;;;4.00;99.90;;;;;;5008066;28;20029;-39
2023/11/04 01:07:13;;;;;;;1.75;1.52;;;4.10;99.90;;;;;;5007022;28;20038;-39
2023/11/04 01:09:39;;;;;;;2.08;1.67;;;4.00;99.90;;;;;;5004734;28;20029;-39
2023/11/04 01:12:05;;;;;;;2.03;1.90;;;4.00;99.90;;;;;;4999012;28;20111;-38
2023/11/04 01:14:31;;;;;;;2.22;1.80;;;3.90;99.90;;;;;;5007779;28;20502;-39
2023/11/04 01:16:57;;;;;;;2.08;1.83;;;3.90;99.90;;;;;;5003778;28;20026;-34
2023/11/04 01:19:22;;;;;;;2.53;1.50;;;3.90;99.90;;;;;;5007804;28;20034;-37
2023/11/04 01:21:48;;;;;;;1.73;1.63;;;3.90;99.90;;;;;;5008252;28;20032;-38
2023/11/04 01:24:14;;;;;;;2.40;1.67;;;3.90;99.90;;;;;;5001770;28;20033;-39
2023/11/04 01:26:40;;;;;;;2.10;1.50;;;3.90;99.90;;;;;;5004237;28;21093;-38
2023/11/04 01:29:06;;;;;;;2.10;1.90;;;3.80;99.90;;;;;;5005459;28;20034;-38
2023/11/04 01:31:32;;;;;;;1.63;1.52;;;3.80;99.90;;;;;;5003375;28;20408;-39
2023/11/04 01:33:57;;;;;;;1.52;1.42;;;3.70;99.90;;;;;;5006419;28;20050;-40
2023/11/04 01:36:23;;;;;;;1.60;1.50;;;3.80;99.90;;;;;;5005406;28;20065;-38
2023/11/04 01:38:49;;;;;;;3.40;1.67;;;3.90;99.90;;;;;;5008009;28;20049;-42
2023/11/04 01:41:14;;;;;;;2.13;1.70;;;3.90;99.90;;;;;;5007954;28;20531;-42
2023/11/04 01:43:42;;;;;;;1.75;1.65;;;3.90;99.90;;;;;;5007567;28;20503;-38
2023/11/04 01:46:17;;;;;;;1.60;1.50;;;3.70;99.90;;;;;;5000912;28;20651;-39
2023/11/04 01:48:43;;;;;;;1.73;1.63;;;3.80;99.90;;;;;;5007072;28;20507;-39
2023/11/04 01:51:10;;;;;;;1.50;1.40;;;3.80;99.90;;;;;;5008284;28;21072;-38
2023/11/04 01:53:38;;;;;;;2.50;1.75;;;3.80;99.90;;;;;;5006481;28;20495;-32
2023/11/04 01:56:06;;;;;;;1.70;1.60;;;3.80;99.90;;;;;;5003685;28;20468;-40
2023/11/04 01:58:36;;;;;;;1.80;1.70;;;3.80;99.90;;;;;;5005085;28;20119;-37
2023/11/04 02:01:02;;;;;;;1.90;1.80;;;3.90;99.90;;;;;;5004984;28;20116;-37
2023/11/04 02:03:28;;;;;;;2.35;1.60;;;3.90;99.90;;;;;;5006470;28;20524;-41
2023/11/04 02:05:54;;;;;;;3.40;1.70;;;3.90;99.90;;;;;;5006420;28;20042;-39
2023/11/04 02:08:20;;;;;;;1.98;1.52;;;3.90;99.90;;;;;;5003879;28;20050;-36
2023/11/04 02:10:46;;;;;;;2.60;1.73;;;3.80;99.90;;;;;;5002152;28;20065;-42
2023/11/04 02:13:12;;;;;;;3.65;1.52;;;3.90;99.90;;;;;;5006463;28;20100;-41
2023/11/04 02:15:38;;;;;;;1.70;1.60;;;3.80;99.90;;;;;;5006058;28;20027;-39
2023/11/04 02:18:04;;;;;;;1.50;1.40;;;3.80;99.90;;;;;;5005215;28;20435;-36
2023/11/04 02:20:33;;;;;;;1.63;1.52;;;3.90;99.90;;;;;;5005824;28;20118;-39
2023/11/04 02:22:59;;;;;;;4.63;3.53;;;3.80;99.90;;;;;;5002090;28;20459;-41
2023/11/04 02:25:31;;;;;;;2.75;2.50;;;3.80;99.90;;;;;;5004517;28;20116;-29
2023/11/04 02:27:56;;;;;;;7.00;5.10;;;3.80;99.90;;;;;;5006251;28;20120;-30
2023/11/04 02:30:22;;;;;;;9.68;6.57;;;3.80;99.90;;;;;;5010371;28;20129;-29
2023/11/04 02:32:49;;;;;;;33.53;22.00;;;3.80;99.90;;;;;;5006739;28;20545;-30
2023/11/04 02:35:15;;;;;;;19.35;12.65;;;3.80;99.90;;;;;;5005991;28;20049;-30
2023/11/04 02:37:41;;;;;;;23.17;13.43;;;3.80;99.90;;;;;;5008157;28;20041;-33
2023/11/04 02:40:10;;;;;;;34.70;22.90;;;3.80;99.90;;;;;;5003212;28;20025;-30
2023/11/04 02:42:35;;;;;;;35.08;20.67;;;3.80;99.90;;;;;;5003940;28;20154;-32
2023/11/04 02:45:02;;;;;;;18.15;11.95;;;3.80;99.90;;;;;;5003896;28;20113;-32
2023/11/04 02:47:28;;;;;;;11.73;9.38;;;3.80;99.90;;;;;;5002925;28;20022;-31
2023/11/04 02:49:54;;;;;;;7.78;6.80;;;3.80;99.90;;;;;;5005072;28;20084;-33
2023/11/04 02:52:19;;;;;;;33.55;19.17;;;3.80;99.90;;;;;;5003553;28;20037;-37
2023/11/04 02:54:45;;;;;;;96.45;60.78;;;3.80;99.90;;;;;;5004644;28;20120;-32
2023/11/04 02:57:11;;;;;;;34.92;23.98;;;3.70;99.90;;;;;;5002270;28;20487;-33
2023/11/04 02:59:37;;;;;;;18.08;13.13;;;3.70;99.90;;;;;;5005486;28;20462;-33
2023/11/04 03:02:04;;;;;;;13.25;9.55;;;3.70;99.90;;;;;;5004092;28;20129;-32
2023/11/04 03:04:31;;;;;;;8.95;6.70;;;3.70;99.90;;;;;;5003506;28;20747;-32
2023/11/04 03:06:57;;;;;;;5.03;3.85;;;3.70;99.90;;;;;;5003076;28;20025;-32
2023/11/04 03:09:22;;;;;;;7.43;6.40;;;3.70;99.90;;;;;;5005310;28;20060;-37
2023/11/04 03:11:48;;;;;;;5.60;5.10;;;3.70;99.90;;;;;;5004102;28;20480;-33
2023/11/04 03:14:14;;;;;;;3.53;3.22;;;3.70;99.90;;;;;;5005731;28;20068;-31
2023/11/04 03:16:40;;;;;;;3.22;2.95;;;3.70;99.90;;;;;;5003346;28;20449;-39
2023/11/04 03:19:06;;;;;;;3.47;2.22;;;3.70;99.90;;;;;;4997723;28;20097;-32
2023/11/04 03:21:31;;;;;;;2.17;1.70;;;3.80;99.90;;;;;;5005093;28;20029;-35
2023/11/04 03:23:57;;;;;;;1.85;1.75;;;3.80;99.90;;;;;;5004675;28;20034;-31
2023/11/04 03:26:23;;;;;;;1.80;1.70;;;3.80;99.90;;;;;;4998864;28;20076;-32
2023/11/04 03:28:48;;;;;;;1.73;1.63;;;3.80;99.90;;;;;;5001846;28;20036;-31
2023/11/04 03:31:14;;;;;;;1.80;1.70;;;3.80;99.90;;;;;;5005213;28;20099;-32
2023/11/04 03:33:40;;;;;;;2.00;1.80;;;3.80;99.90;;;;;;5004460;28;20030;-36
2023/11/04 03:36:08;;;;;;;3.03;2.70;;;3.90;99.90;;;;;;5005580;28;20084;-37
2023/11/04 03:38:34;;;;;;;2.42;2.22;;;3.90;99.90;;;;;;5002773;28;20026;-31
2023/11/04 03:41:00;;;;;;;2.35;2.00;;;3.90;99.90;;;;;;5007972;28;20036;-31
2023/11/04 03:43:26;;;;;;;2.40;2.20;;;3.90;99.90;;;;;;5005750;28;20030;-30
2023/11/04 03:45:51;;;;;;;2.88;2.10;;;3.80;99.90;;;;;;5007063;28;20038;-29
2023/11/04 03:48:17;;;;;;;3.17;1.95;;;3.90;99.90;;;;;;5009360;28;20062;-30
2023/11/04 03:50:43;;;;;;;3.35;2.15;;;3.80;99.90;;;;;;5007420;28;20034;-30
2023/11/04 03:53:09;;;;;;;2.08;1.85;;;3.90;99.90;;;;;;4987040;28;20056;-40
2023/11/04 03:55:35;;;;;;;2.67;2.20;;;3.90;99.90;;;;;;4999130;28;20524;-41
2023/11/04 03:58:01;;;;;;;1.90;1.80;;;3.90;99.90;;;;;;5002666;28;20069;-37
2023/11/04 04:00:27;;;;;;;4.30;2.05;;;3.90;99.90;;;;;;5001628;28;20050;-39
2023/11/04 04:02:53;;;;;;;4.07;1.98;;;3.90;99.90;;;;;;4999965;28;20739;-41
2023/11/04 04:05:19;;;;;;;2.58;2.38;;;3.90;99.90;;;;;;5003506;28;20117;-36
2023/11/04 04:07:45;;;;;;;3.58;2.20;;;3.80;99.90;;;;;;5003291;28;20026;-41
2023/11/04 04:10:11;;;;;;;3.58;3.15;;;3.80;99.90;;;;;;5004259;28;20061;-36
2023/11/04 04:12:37;;;;;;;3.40;3.10;;;3.80;99.90;;;;;;5003750;28;20137;-37
2023/11/04 04:15:03;;;;;;;1.73;1.63;;;3.80;99.90;;;;;;5005372;28;20057;-39
2023/11/04 04:17:29;;;;;;;1.73;1.63;;;3.70;99.90;;;;;;5002814;28;20026;-41
2023/11/04 04:19:55;;;;;;;1.98;1.65;;;3.60;99.90;;;;;;5004483;28;20045;-38
2023/11/04 04:22:20;;;;;;;2.55;2.13;;;3.60;99.90;;;;;;5003919;28;20081;-35
2023/11/04 04:24:46;;;;;;;2.00;1.85;;;3.60;99.90;;;;;;5004494;28;20083;-41
2023/11/04 04:27:11;;;;;;;3.17;2.45;;;3.60;99.90;;;;;;5002633;28;20069;-39
2023/11/04 04:29:37;;;;;;;8.07;4.97;;;3.60;99.90;;;;;;5001207;28;20030;-39
2023/11/04 04:32:03;;;;;;;4.43;1.90;;;3.50;99.90;;;;;;5004094;28;20030;-40
2023/11/04 04:34:28;;;;;;;2.35;2.15;;;3.50;99.90;;;;;;5003042;28;20038;-39
2023/11/04 04:36:56;;;;;;;3.90;2.78;;;3.50;99.90;;;;;;5005076;28;20049;-40
2023/11/04 04:39:22;;;;;;;2.20;2.00;;;3.50;99.90;;;;;;5003743;28;20748;-39
2023/11/04 04:41:48;;;;;;;3.15;2.28;;;3.50;99.90;;;;;;5001391;28;20041;-39
2023/11/04 04:44:13;;;;;;;3.47;3.17;;;3.50;99.90;;;;;;5005176;28;20030;-39
2023/11/04 04:46:39;;;;;;;2.78;2.53;;;3.50;99.90;;;;;;5004566;28;20464;-41
2023/11/04 04:49:05;;;;;;;2.45;2.25;;;3.50;99.90;;;;;;5004001;28;20038;-41
2023/11/04 04:51:31;;;;;;;2.65;2.33;;;3.50;99.90;;;;;;5000930;28;20403;-38
2023/11/04 04:53:56;;;;;;;2.33;1.55;;;3.60;99.90;;;;;;5001344;28;20065;-35
2023/11/04 04:56:23;;;;;;;1.55;1.40;;;3.50;99.90;;;;;;5003011;28;20424;-33
2023/11/04 04:58:49;;;;;;;1.52;1.42;;;3.50;99.90;;;;;;5001215;28;20022;-31
2023/11/04 05:01:22;;;;;;;1.80;1.70;;;3.50;99.90;;;;;;4996163;28;20061;-31
2023/11/04 05:03:49;;;;;;;4.45;1.80;;;3.50;99.90;;;;;;5005489;28;20029;-39
2023/11/04 05:06:15;;;;;;;1.88;1.70;;;3.50;99.90;;;;;;5008465;28;20084;-38
2023/11/04 05:08:43;;;;;;;1.40;1.38;;;3.50;99.90;;;;;;5005698;28;20088;-34
2023/11/04 05:11:09;;;;;;;2.10;1.52;;;3.50;99.90;;;;;;5006727;28;20049;-41
2023/11/04 05:13:38;;;;;;;3.00;1.40;;;3.40;99.90;;;;;;5002704;28;20117;-38
2023/11/04 05:16:04;;;;;;;1.48;1.38;;;3.50;99.90;;;;;;5003879;28;20041;-41
2023/11/04 05:18:30;;;;;;;1.25;1.20;;;3.40;99.90;;;;;;5006889;28;20037;-38
2023/11/04 05:20:58;;;;;;;2.63;1.65;;;3.40;99.90;;;;;;5000611;28;20634;-35
2023/11/04 05:23:24;;;;;;;2.53;2.13;;;3.40;99.90;;;;;;5007279;28;20125;-36
2023/11/04 05:25:50;;;;;;;4.28;2.78;;;3.40;99.90;;;;;;5007246;28;20551;-40
2023/11/04 05:28:16;;;;;;;10.10;6.95;;;3.30;99.90;;;;;;5007336;28;20026;-38
2023/11/04 05:30:42;;;;;;;4.85;4.20;;;3.20;99.90;;;;;;5003173;28;20036;-37
2023/11/04 05:33:09;;;;;;;4.13;3.72;;;3.30;99.90;;;;;;5006890;28;20033;-37
2023/11/04 05:35:35;;;;;;;3.60;2.73;;;3.30;99.90;;;;;;5004992;28;20096;-39
2023/11/04 05:38:01;;;;;;;1.75;1.65;;;3.30;99.90;;;;;;5006248;28;20801;-40
2023/11/04 05:40:28;;;;;;;2.20;2.00;;;3.30;99.90;;;;;;5007510;28;20057;-41
2023/11/04 05:42:55;;;;;;;2.20;1.83;;;3.30;99.90;;;;;;5006110;28;20034;-42
2023/11/04 05:45:20;;;;;;;3.70;1.77;;;3.30;99.90;;;;;;5007297;28;20084;-35
2023/11/04 05:47:46;;;;;;;1.73;1.63;;;3.20;99.90;;;;;;5006260;28;20042;-42
2023/11/04 05:50:12;;;;;;;5.22;1.63;;;3.20;99.90;;;;;;5006596;28;20045;-39
2023/11/04 05:52:38;;;;;;;2.67;1.60;;;3.20;99.90;;;;;;5003432;28;20537;-40
2023/11/04 05:55:04;;;;;;;1.50;1.40;;;3.20;99.90;;;;;;5007265;28;20487;-41
2023/11/04 05:57:30;;;;;;;1.60;1.50;;;3.20;99.90;;;;;;5004998;28;20030;-41
2023/11/04 05:59:56;;;;;;;2.47;1.35;;;3.10;99.90;;;;;;5003366;28;20104;-37
2023/11/04 06:02:21;;;;;;;1.35;1.35;;;3.10;99.90;;;;;;5006867;28;20511;-32
2023/11/04 06:04:47;;;;;;;1.25;1.20;;;3.10;99.90;;;;;;5009399;28;20030;-29
2023/11/04 06:07:13;;;;;;;1.58;1.48;;;3.00;99.90;;;;;;4993372;28;20456;-34
2023/11/04 06:09:38;;;;;;;2.00;1.70;;;3.00;99.90;;;;;;5007684;28;20029;-30
2023/11/04 06:12:04;;;;;;;3.08;1.40;;;3.00;99.90;;;;;;5006160;28;20084;-30
2023/11/04 06:14:29;;;;;;;1.60;1.60;;;3.00;99.90;;;;;;5005788;28;20033;-29
2023/11/04 06:16:56;;;;;;;1.17;1.17;;;2.90;99.90;;;;;;5007196;28;20021;-30
2023/11/04 06:19:22;;;;;;;1.30;1.23;;;2.90;99.90;;;;;;5009249;28;20037;-30
2023/11/04 06:21:48;;;;;;;1.30;1.20;;;2.90;99.90;;;;;;5006103;28;20033;-34
2023/11/04 06:24:14;;;;;;;1.42;1.40;;;2.90;99.90;;;;;;5007563;28;20034;-31
2023/11/04 06:26:39;;;;;;;1.35;1.20;;;2.90;99.90;;;;;;5007760;28;20030;-31
2023/11/04 06:29:05;;;;;;;1.40;1.30;;;2.90;99.90;;;;;;5006297;28;20111;-32
2023/11/04 06:31:31;;;;;;;1.50;1.40;;;2.90;99.90;;;;;;4996522;28;20065;-30
2023/11/04 06:33:57;;;;;;;1.48;1.38;;;2.90;99.90;;;;;;5010637;28;20034;-31
2023/11/04 06:36:23;;;;;;;1.30;1.20;;;2.90;99.90;;;;;;5007120;28;20487;-31
2023/11/04 06:38:49;;;;;;;1.50;1.42;;;2.80;99.90;;;;;;5007701;28;20029;-32
2023/11/04 06:41:16;;;;;;;0.85;0.85;;;2.80;99.90;;;;;;4990588;28;20026;-30
2023/11/04 06:43:46;;;;;;;1.77;1.30;;;2.80;99.90;;;;;;5008082;28;20255;-31
2023/11/04 06:46:12;;;;;;;2.00;1.40;;;2.90;99.90;;;;;;4989971;28;20030;-30
2023/11/04 06:48:38;;;;;;;1.20;1.20;;;2.80;99.90;;;;;;5007910;28;20022;-31
2023/11/04 06:51:05;;;;;;;2.22;1.30;;;2.90;99.90;;;;;;5007117;28;20084;-30
2023/11/04 06:53:30;;;;;;;1.45;1.35;;;2.90;99.90;;;;;;5006202;28;20511;-34
2023/11/04 06:55:58;;;;;;;1.15;1.15;;;2.90;99.90;;;;;;5005868;28;20022;-32
2023/11/04 06:58:27;;;;;;;1.67;1.58;;;2.90;99.90;;;;;;5009018;28;20034;-31
2023/11/04 07:00:53;;;;;;;1.00;1.00;;;2.90;99.90;;;;;;5004895;28;20038;-30
2023/11/04 07:03:19;;;;;;;1.10;1.10;;;3.00;99.90;;;;;;5001566;28;20464;-31
2023/11/04 07:05:45;;;;;;;3.38;1.50;;;2.90;99.90;;;;;;5001431;28;20139;-30
2023/11/04 07:08:14;;;;;;;1.90;1.70;;;2.90;99.90;;;;;;5006519;28;20034;-31
2023/11/04 07:10:40;;;;;;;1.55;1.45;;;2.90;99.90;;;;;;5007481;28;20041;-30
2023/11/04 07:13:11;;;;;;;2.92;1.70;;;2.90;99.90;;;;;;5007864;28;20033;-40
2023/11/04 07:15:37;;;;;;;1.52;1.42;;;2.90;99.90;;;;;;5005328;28;20026;-41
2023/11/04 07:18:06;;;;;;;1.50;1.40;;;3.00;99.90;;;;;;5005249;28;20041;-39
2023/11/04 07:20:35;;;;;;;2.88;1.85;;;3.00;99.90;;;;;;5006741;28;20037;-37
2023/11/04 07:23:01;;;;;;;1.13;1.13;;;3.00;99.90;;;;;;5001796;28;20214;-31
2023/11/04 07:25:27;;;;;;;1.50;1.40;;;3.00;99.90;;;;;;4999739;28;20076;-32
2023/11/04 07:27:53;;;;;;;1.20;1.20;;;3.10;99.90;;;;;;5005898;28;20025;-32
2023/11/04 07:30:19;;;;;;;1.00;1.00;;;3.10;99.90;;;;;;5005623;28;20036;-35
2023/11/04 07:32:45;;;;;;;1.65;1.42;;;3.30;99.90;;;;;;5004927;28;20129;-34
2023/11/04 07:35:11;;;;;;;1.20;1.20;;;3.40;99.90;;;;;;5006377;28;20046;-33
2023/11/04 07:37:37;;;;;;;1.40;1.30;;;3.50;99.90;;;;;;5007940;28;20068;-36
2023/11/04 07:40:05;;;;;;;1.40;1.15;;;3.60;99.90;;;;;;4999882;28;20026;-34
2023/11/04 07:42:31;;;;;;;;;;;3.60;99.90;;;;;;5001479;28;20068;-32
2023/11/04 07:44:57;;;;;;;1.85;1.20;;;3.70;99.90;;;;;;5006687;28;19964;-32
2023/11/04 07:47:22;;;;;;;1.50;1.40;;;3.70;99.90;;;;;;5005884;28;20484;-33
2023/11/04 07:49:48;;;;;;;1.30;1.20;;;3.80;99.90;;;;;;5004226;28;20567;-34
2023/11/04 07:52:13;;;;;;;1.35;1.05;;;4.00;99.90;;;;;;5004761;28;20030;-32
2023/11/04 07:54:40;;;;;;;1.30;1.20;;;4.10;99.90;;;;;;5002485;28;20100;-32
2023/11/04 07:57:05;;;;;;;0.85;0.85;;;4.10;99.90;;;;;;4983200;28;20133;-33
2023/11/04 07:59:32;;;;;;;0.93;0.90;;;4.30;99.90;;;;;;5001526;28;20133;-32
2023/11/04 08:01:58;;;;;;;1.25;1.17;;;4.40;99.90;;;;;;4988451;28;20034;-33
2023/11/04 08:04:26;;;;;;;1.67;1.00;;;4.40;99.90;;;;;;5005286;28;20036;-33
2023/11/04 08:06:51;;;;;;;1.47;1.20;;;4.50;99.90;;;;;;5005932;28;20033;-32
2023/11/04 08:09:18;;;;;;;1.00;1.00;;;4.60;99.90;;;;;;5004326;28;20041;-37
2023/11/04 08:11:44;;;;;;;1.75;1.00;;;4.70;99.90;;;;;;5005782;28;20026;-33
2023/11/04 08:14:09;;;;;;;0.98;0.98;;;4.70;99.90;;;;;;5006159;28;20040;-34
2023/11/04 08:16:35;;;;;;;1.10;1.10;;;4.80;99.90;;;;;;5004220;28;20048;-32
2023/11/04 08:19:00;;;;;;;0.88;0.88;;;5.00;99.90;;;;;;5006020;28;20648;-32
2023/11/04 08:21:29;;;;;;;0.90;0.90;;;5.00;99.90;;;;;;5004868;28;20029;-32
2023/11/04 08:23:58;;;;;;;;;;;5.10;99.90;;;;;;5005316;28;20049;-30
2023/11/04 08:26:24;;;;;;;1.30;1.20;;;5.30;99.90;;;;;;5006426;28;19960;-30
2023/11/04 08:28:51;;;;;;;1.45;1.35;;;5.30;99.90;;;;;;5003801;28;20096;-30
2023/11/04 08:31:18;;;;;;;0.90;0.90;;;5.60;99.90;;;;;;5003407;28;20038;-30
2023/11/04 08:33:44;;;;;;;0.75;0.75;;;5.70;99.90;;;;;;5003308;28;20038;-30
2023/11/04 08:36:10;;;;;;;2.25;0.90;;;5.80;99.90;;;;;;5004751;28;20371;-33
2023/11/04 08:38:36;;;;;;;2.13;1.58;;;5.90;99.90;;;;;;5012391;28;20026;-30
2023/11/04 08:41:02;;;;;;;1.38;1.27;;;6.00;99.90;;;;;;5011648;28;20464;-32
2023/11/04 08:43:28;;;;;;;1.13;1.00;;;6.10;99.90;;;;;;5009150;28;20399;-30
2023/11/04 08:45:54;;;;;;;0.90;0.90;;;6.30;99.90;;;;;;5010173;28;20038;-31
2023/11/04 08:48:19;;;;;;;1.30;1.20;;;6.30;99.90;;;;;;5009692;28;20061;-36
2023/11/04 08:50:45;;;;;;;1.10;1.00;;;6.30;99.90;;;;;;4989455;28;20034;-30
2023/11/04 08:53:11;;;;;;;1.52;0.80;;;6.40;99.90;;;;;;5001761;28;20109;-33
2023/11/04 08:55:37;;;;;;;1.20;1.10;;;6.60;99.90;;;;;;5005957;28;20037;-32
2023/11/04 08:58:02;;;;;;;0.90;0.90;;;6.70;99.90;;;;;;5006367;28;20029;-33
2023/11/04 09:00:29;;;;;;;4.88;1.05;;;6.70;99.90;;;;;;5008276;28;20030;-34
2023/11/04 09:02:55;;;;;;;1.00;1.00;;;6.80;99.90;;;;;;4990365;28;20403;-33
2023/11/04 09:05:21;;;;;;;0.80;0.80;;;6.90;99.90;;;;;;4999662;28;20765;-33
2023/11/04 09:07:47;;;;;;;0.80;0.80;;;7.00;99.90;;;;;;5004349;28;20033;-32
2023/11/04 09:10:13;;;;;;;0.88;0.88;;;7.00;99.90;;;;;;4999314;28;20113;-32
2023/11/04 09:12:39;;;;;;;0.75;0.75;;;7.10;99.90;;;;;;4999354;28;20101;-31
2023/11/04 09:15:05;;;;;;;2.20;1.02;;;7.30;99.90;;;;;;4992308;28;20025;-31
2023/11/04 09:17:31;;;;;;;0.80;0.77;;;7.40;99.90;;;;;;5005477;28;20513;-31
2023/11/04 09:19:57;;;;;;;0.90;0.90;;;7.50;99.90;;;;;;4988815;28;20022;-31
2023/11/04 09:22:23;;;;;;;0.82;0.82;;;7.60;99.90;;;;;;5005828;28;20041;-34
2023/11/04 09:24:49;;;;;;;0.90;0.90;;;7.60;99.90;;;;;;5007612;28;20124;-33
2023/11/04 09:27:14;;;;;;;0.70;0.70;;;7.70;99.90;;;;;;5001744;28;20294;-33
2023/11/04 09:29:40;;;;;;;0.82;0.82;;;7.80;99.90;;;;;;5007321;28;20120;-35
2023/11/04 09:32:06;;;;;;;0.63;0.63;;;7.90;99.90;;;;;;5006509;28;20092;-31
2023/11/04 09:34:33;;;;;;;1.45;1.35;;;7.90;99.90;;;;;;5007478;28;20416;-32
2023/11/04 09:36:59;;;;;;;0.80;0.80;;;8.00;99.90;;;;;;5003211;28;20040;-31
2023/11/04 09:39:24;;;;;;;1.00;1.00;;;8.10;99.90;;;;;;5001615;28;20395;-32
2023/11/04 09:41:52;;;;;;;0.75;0.60;;;8.30;99.90;;;;;;5004793;28;20029;-33
2023/11/04 09:44:19;;;;;;;0.68;0.68;;;8.40;99.90;;;;;;5002506;28;20092;-36
2023/11/04 09:46:45;;;;;;;0.40;0.40;;;8.50;99.90;;;;;;5000694;28;20399;-33
2023/11/04 09:49:11;;;;;;;0.60;0.60;;;8.50;99.90;;;;;;5000205;28;20112;-31
2023/11/04 09:51:37;;;;;;;0.40;0.40;;;8.50;99.90;;;;;;5003488;28;20034;-32
2023/11/04 09:54:07;;;;;;;0.73;0.73;;;8.60;99.90;;;;;;5003070;28;20038;-33
2023/11/04 09:56:33;;;;;;;0.50;0.50;;;8.60;99.90;;;;;;5003659;28;20038;-37
2023/11/04 09:58:59;;;;;;;0.90;0.90;;;8.70;99.90;;;;;;5001841;28;20034;-32
2023/11/04 10:01:24;;;;;;;0.60;0.60;;;8.70;99.90;;;;;;5002505;28;20052;-34
2023/11/04 10:03:51;;;;;;;0.80;0.80;;;8.80;99.90;;;;;;5002335;28;20025;-34
2023/11/04 10:06:17;;;;;;;0.50;0.50;;;8.90;99.90;;;;;;5002381;28;20029;-39
2023/11/04 10:08:43;;;;;;;1.40;1.00;;;8.90;99.90;;;;;;5001794;28;20083;-37
2023/11/04 10:11:09;;;;;;;1.23;0.73;;;8.90;99.90;;;;;;5004145;28;20431;-39
2023/11/04 10:13:36;;;;;;;0.70;0.70;;;9.00;99.90;;;;;;5002587;28;20101;-41
2023/11/04 10:16:03;;;;;;;4.03;0.70;;;9.00;99.90;;;;;;5002528;28;20030;-40
2023/11/04 10:18:30;;;;;;;0.60;0.60;;;9.00;99.90;;;;;;4999192;28;20026;-38
2023/11/04 10:20:56;;;;;;;0.98;0.85;;;9.00;99.90;;;;;;4999184;28;20026;-39
2023/11/04 10:23:21;;;;;;;0.70;0.70;;;9.00;99.90;;;;;;5001218;28;20037;-40
2023/11/04 10:25:47;;;;;;;0.60;0.60;;;9.10;99.90;;;;;;4982070;28;20039;-41
2023/11/04 10:28:13;;;;;;;0.80;0.80;;;9.20;99.90;;;;;;5000906;28;20500;-36
2023/11/04 10:30:38;;;;;;;0.60;0.60;;;9.20;99.90;;;;;;5003395;28;20018;-42
2023/11/04 10:33:09;;;;;;;0.60;0.60;;;9.30;99.90;;;;;;5004268;28;20084;-40
2023/11/04 10:35:37;;;;;;;0.52;0.52;;;9.40;99.90;;;;;;5006042;28;20065;-37
2023/11/04 10:38:09;;;;;;;0.73;0.73;;;9.60;99.90;;;;;;5003045;28;20058;-38
2023/11/04 10:40:35;;;;;;;0.60;0.60;;;9.50;99.90;;;;;;5004180;28;20022;-40
2023/11/04 10:43:10;;;;;;;1.45;0.50;;;9.50;99.90;;;;;;5000272;28;20041;-32
2023/11/04 10:45:47;;;;;;;0.52;0.52;;;9.50;99.90;;;;;;5001408;28;20041;-33
2023/11/04 10:48:39;;;;;;;0.50;0.50;;;9.40;99.90;;;;;;5001430;28;20076;-33
2023/11/04 10:51:28;;;;;;;0.50;0.50;;;9.50;99.90;;;;;;5000347;28;20026;-30
2023/11/04 10:54:11;;;;;;;0.70;0.70;;;9.60;99.90;;;;;;5002358;28;20025;-31
2023/11/04 10:56:59;;;;;;;0.90;0.90;;;9.70;99.90;;;;;;5002493;28;20114;-33
2023/11/04 10:59:44;;;;;;;0.52;0.52;;;9.70;99.90;;;;;;5000681;28;20042;-32
2023/11/04 11:02:12;;;;;;;1.45;0.60;;;9.80;99.90;;;;;;5001365;28;20800;-36
2023/11/04 11:04:39;;;;;;;0.70;0.70;;;9.80;99.90;;;;;;4998750;28;20025;-32
2023/11/04 11:07:06;;;;;;;0.52;0.52;;;9.70;99.90;;;;;;5001738;28;20022;-34
2023/11/04 11:09:32;;;;;;;0.65;0.65;;;9.70;99.90;;;;;;5000797;28;20029;-33
2023/11/04 11:12:15;;;;;;;0.55;0.55;;;9.70;99.90;;;;;;5003137;28;20030;-33
2023/11/04 11:14:41;;;;;;;1.08;0.60;;;9.80;99.90;;;;;;5001594;28;20037;-37
2023/11/04 11:17:07;;;;;;;0.70;0.70;;;9.90;99.90;;;;;;5002089;28;20046;-36
2023/11/04 11:19:35;;;;;;;0.47;0.47;;;9.90;99.90;;;;;;5001214;28;20057;-36
2023/11/04 11:22:05;;;;;;;;;;;9.90;99.90;;;;;;4997288;28;20403;-40
2023/11/04 11:24:30;;;;;;;0.50;0.50;;;9.90;99.90;;;;;;5001022;28;19913;-41
2023/11/04 11:26:59;;;;;;;0.52;0.52;;;9.90;99.90;;;;;;5001854;28;20515;-39
2023/11/04 11:29:26;;;;;;;0.47;0.47;;;10.00;99.90;;;;;;4983853;28;20033;-37
2023/11/04 11:32:05;;;;;;;0.38;0.38;;;9.90;99.90;;;;;;5001653;28;20496;-42
2023/11/04 11:34:30;;;;;;;0.60;0.60;;;9.90;99.90;;;;;;4982972;28;20052;-39
2023/11/04 11:36:59;;;;;;;0.60;0.57;;;9.80;99.90;;;;;;5000581;28;20534;-37
2023/11/04 11:39:25;;;;;;;0.60;0.60;;;9.70;99.90;;;;;;5000569;28;20092;-38
2023/11/04 11:41:51;;;;;;;0.75;0.43;;;9.60;99.90;;;;;;4999967;28;20053;-35
2023/11/04 11:44:17;;;;;;;0.60;0.60;;;9.70;99.90;;;;;;5001978;28;20365;-40
2023/11/04 11:46:43;;;;;;;0.85;0.50;;;9.70;99.90;;;;;;5000790;28;20065;-38
2023/11/04 11:49:09;;;;;;;0.60;0.60;;;9.70;99.90;;;;;;5001315;28;20065;-41
2023/11/04 11:51:36;;;;;;;2.17;0.73;;;9.70;99.90;;;;;;4998840;28;20033;-40
2023/11/04 11:54:02;;;;;;;1.30;0.70;;;9.70;99.90;;;;;;5000783;28;20041;-39
2023/11/04 11:56:30;;;;;;;0.60;0.60;;;9.70;99.90;;;;;;5001196;28;20057;-40
2023/11/04 11:59:05;;;;;;;;;;;9.70;99.90;;;;;;5001247;28;20116;-38
2023/11/04 12:01:31;;;;;;;0.52;0.52;;;9.70;99.90;;;;;;4997673;28;19932;-41
2023/11/04 12:04:00;;;;;;;0.63;0.63;;;9.70;99.90;;;;;;4999595;28;20605;-37
2023/11/04 12:06:27;;;;;;;0.52;0.52;;;9.70;99.90;;;;;;5001642;28;20632;-41
2023/11/04 12:08:55;;;;;;;0.50;0.50;;;9.70;99.90;;;;;;4999544;28;20328;-40
2023/11/04 12:11:22;;;;;;;0.95;0.70;;;9.70;99.90;;;;;;5001310;28;20771;-38
2023/11/04 12:13:49;;;;;;;0.50;0.50;;;9.60;99.90;;;;;;5006808;28;20077;-40
2023/11/04 12:16:15;;;;;;;0.68;0.60;;;9.60;99.90;;;;;;5005513;28;20026;-40
2023/11/04 12:18:41;;;;;;;0.82;0.82;;;9.60;99.90;;;;;;5006187;28;20025;-34
2023/11/04 12:21:10;;;;;;;1.70;1.48;;;9.60;99.90;;;;;;5005378;28;20037;-36
2023/11/04 12:23:36;;;;;;;1.00;0.90;;;9.60;99.90;;;;;;5007511;28;20103;-31
2023/11/04 12:26:02;;;;;;;0.60;0.60;;;9.60;99.90;;;;;;5008921;28;20026;-30
2023/11/04 12:28:27;;;;;;;1.13;0.70;;;9.70;99.90;;;;;;5007701;28;20079;-30
2023/11/04 12:31:03;;;;;;;0.70;0.70;;;9.70;99.90;;;;;;5006484;28;20042;-30
2023/11/04 12:33:29;;;;;;;0.88;0.73;;;9.80;99.90;;;;;;5006834;28;20655;-31
2023/11/04 12:36:02;;;;;;;1.40;0.77;;;9.90;99.90;;;;;;5008970;28;20108;-29
2023/11/04 12:38:28;;;;;;;0.63;0.63;;;10.00;99.90;;;;;;5008484;28;20022;-31
2023/11/04 12:40:55;;;;;;;0.80;0.80;;;10.00;99.90;;;;;;5008918;28;20041;-30
2023/11/04 12:43:23;;;;;;;8.80;1.35;;;10.10;99.90;;;;;;5009384;28;20136;-37
2023/11/04 12:45:52;;;;;;;0.80;0.80;;;10.10;99.90;;;;;;4987417;28;20034;-31
2023/11/04 12:48:18;;;;;;;0.80;0.80;;;10.20;99.90;;;;;;5004426;28;20065;-33
2023/11/04 12:50:44;;;;;;;1.45;1.35;;;10.10;99.90;;;;;;5007160;28;20061;-30
2023/11/04 12:53:10;;;;;;;10.07;5.47;;;10.10;99.90;;;;;;5007775;28;20526;-33
2023/11/04 12:55:35;;;;;;;2.65;1.52;;;10.10;99.90;;;;;;5007122;28;20146;-29